Terminal Aerodrome Forecast
Issued by NWS

Home | Current Version | Previous Version | Text Only | Print | Product List | Glossary On
Versions: 1 2 3 4 5 6 7 8 9 10 11 12 13 14 15 16 17 18 19 20 21 22 23 24 25 26 27 28
000
FTUS41 KBOX 190539
TAFFMH
TAF
KFMH 190539Z 1906/2006 01010KT P6SM BKN040
     FM191100 02011KT P6SM SCT050
     FM191300 02011G20KT P6SM SCT250
     FM192000 06010KT P6SM FEW250
     FM200100 10006KT P6SM SKC=

USA.gov is the U.S. government's official web portal to all federal, state and local government web resources and services.